Hangaard, Minnesota
Current Conditions -  °F | °C
As of 7:55 PM on Monday 24 Nov 2014 (Local Time) from KFSE Reporting Station
Light Snow Light Snow  
Wind Chill: -9°   Ceiling: Unl
Heat Index:   Visibility: 10mi
Dew Point:   Wind: 12mph
Humidity: 85%   Direction: 310°NW
Pressure: 29.92"   Gusts: NA
Location:  47.8469°N, 95.4815°W
Report Text: KFSE 250155Z AUTO 31010KT 10SM -SN CLR M14/M16 A2992 RMK AO2
Loading
Personal Weather Stations






























Interactive Weather Map New forecast layout! Learn more

10-Day Weather Forecast

Advertisements
Track Severe Weather on mobile